»·PEaware :: HAWG11 KLSV-KLSV

HAWG11 :: KLSV-KLSV

FLIGHT INFORMATION

Flight Status: Arrived
Operator: Unknown
More flights by this operator :: More flights under this callsign
Pilot: Logan D. (20254)
Aircraft: FAIRCHILD A-10 THUNDERBOLT 2
(A10)
More flights by this aircraft type
Origin: KLSV Nellis AFB
United States
Destination: KLSV Nellis AFB
United States
More flights between these airports :: More routes between these airports
Route: FYTTR5 FYTTR INS
File this flight plan on PilotEdge
Remarks: +CW / MANEUVERS IN R4806W
Altitude:
(Current/Filed)
16,000ft
Speed:
(Current/Filed)
250kts
Departed: 20-Mar-20 07:27 AM
Arrived: 20-Mar-20 08:43 AM
Distance/Time
Traveled:
1nm/1:16
Distance/Time
To Go:
Arrived

Flight Plot

Page will automatically refresh every two minutes.

Flight plan parsing failed; only flown route is shown


Map Options




Map Legend


Flown Route
Filed Route
Departure Airport
Arrival Airport
Navaid (VOR, NDB)
Fix

Horizontal Profiles

Position Reports

Time Latitude Longitude Heading Altitude Ground
Speed
20-Mar-20 06:40 36.229865 -115.024945 86 1850ft 0kts
20-Mar-20 06:41 36.229865 -115.024945 86 1850ft 0kts
20-Mar-20 06:42 36.229865 -115.024945 86 1850ft 0kts
20-Mar-20 06:43 36.229865 -115.024945 86 1850ft 0kts
20-Mar-20 06:44 36.229865 -115.024945 86 1850ft 0kts
20-Mar-20 06:45 36.229865 -115.024945 86 1850ft 0kts
20-Mar-20 06:46 36.229865 -115.024945 86 1850ft 0kts
20-Mar-20 06:47 36.229865 -115.024945 86 1850ft 0kts
20-Mar-20 06:48 36.229865 -115.024945 86 1850ft 0kts
20-Mar-20 06:49 36.229865 -115.024945 86 1850ft 0kts
20-Mar-20 06:50 36.229865 -115.024945 86 1850ft 0kts
20-Mar-20 06:51 36.229865 -115.024945 86 1850ft 0kts
20-Mar-20 06:52 36.229865 -115.024945 86 1850ft 0kts
20-Mar-20 06:53 36.229865 -115.024945 86 1850ft 0kts
20-Mar-20 06:54 36.229865 -115.024945 86 1850ft 0kts
20-Mar-20 06:55 36.229865 -115.024945 86 1850ft 0kts
20-Mar-20 06:56 36.229865 -115.024945 86 1850ft 0kts
20-Mar-20 06:57 36.229865 -115.024945 86 1850ft 0kts
20-Mar-20 06:58 36.229865 -115.024945 86 1850ft 0kts
20-Mar-20 06:59 36.229865 -115.024945 86 1850ft 0kts
20-Mar-20 07:00 36.229865 -115.024945 86 1850ft 0kts
20-Mar-20 07:01 36.229865 -115.024945 86 1850ft 0kts
20-Mar-20 07:02 36.229865 -115.024945 86 1850ft 0kts
20-Mar-20 07:03 36.229865 -115.024945 86 1850ft 0kts
20-Mar-20 07:04 36.229865 -115.024945 86 1850ft 0kts
20-Mar-20 07:05 36.229865 -115.024945 86 1850ft 0kts
20-Mar-20 07:06 36.229865 -115.024945 86 1850ft 0kts
20-Mar-20 07:07 36.229865 -115.024945 86 1850ft 0kts
20-Mar-20 07:08 36.229865 -115.024945 86 1850ft 0kts
20-Mar-20 07:09 36.229635 -115.024495 87 1850ft 0kts
20-Mar-20 07:10 36.229635 -115.024495 87 1850ft 0kts
20-Mar-20 07:11 36.229635 -115.024495 87 1850ft 0kts
20-Mar-20 07:12 36.229635 -115.024495 87 1850ft 0kts
20-Mar-20 07:13 36.229635 -115.024495 87 1850ft 0kts
20-Mar-20 07:14 36.229635 -115.024495 87 1850ft 0kts
20-Mar-20 07:15 36.229635 -115.024495 87 1850ft 0kts
20-Mar-20 07:16 36.229635 -115.024495 87 1850ft 0kts
20-Mar-20 07:17 36.229635 -115.024495 87 1850ft 0kts
20-Mar-20 07:18 36.229635 -115.024495 87 1850ft 0kts
20-Mar-20 07:19 36.229635 -115.024495 87 1850ft 0kts
20-Mar-20 07:20 36.230102 -115.025304 266 1850ft 7kts
20-Mar-20 07:21 36.230671 -115.028142 270 1850ft 7kts
20-Mar-20 07:22 36.230474 -115.031940 220 1850ft 11kts
20-Mar-20 07:23 36.226268 -115.036471 216 1850ft 22kts
20-Mar-20 07:24 36.222788 -115.041090 308 1848ft 14kts
20-Mar-20 07:25 36.224297 -115.043187 320 1848ft 3kts
20-Mar-20 07:26 36.232339 -115.036075 40 1850ft 145kts
20-Mar-20 07:27 36.272972 -114.992322 38 3896ft 205kts
20-Mar-20 07:28 36.322543 -114.949998 5 6893ft 216kts
20-Mar-20 07:29 36.361128 -114.990811 250 9759ft 221kts
20-Mar-20 07:30 36.318675 -115.051912 223 12055ft 237kts
20-Mar-20 07:31 36.269111 -115.109500 233 14171ft 249kts
20-Mar-20 07:32 36.277079 -115.196493 282 15633ft 259kts
20-Mar-20 07:33 36.292962 -115.288970 281 16316ft 296kts
20-Mar-20 07:34 36.309803 -115.393279 281 16312ft 316kts
20-Mar-20 07:35 36.327617 -115.500939 282 16294ft 322kts
20-Mar-20 07:36 36.346412 -115.609808 282 16282ft 323kts
20-Mar-20 07:37 36.376856 -115.706430 343 16230ft 282kts
20-Mar-20 07:38 36.453651 -115.694126 9 16305ft 292kts
20-Mar-20 07:39 36.536654 -115.681142 4 16241ft 303kts
20-Mar-20 07:40 36.621237 -115.672019 4 16243ft 305kts
20-Mar-20 07:41 36.705985 -115.662879 4 16243ft 304kts
20-Mar-20 07:42 36.781274 -115.619375 34 16201ft 303kts
20-Mar-20 07:43 36.848445 -115.560061 34 16203ft 303kts
20-Mar-20 07:44 36.891810 -115.521781 34 16202ft 304kts
20-Mar-20 07:45 36.959758 -115.461706 34 16197ft 276kts
20-Mar-20 07:46 37.032288 -115.455035 336 16374ft 257kts
20-Mar-20 07:47 37.019189 -115.513199 167 15695ft 313kts
20-Mar-20 07:48 36.931976 -115.508124 178 16130ft 317kts
20-Mar-20 07:49 36.842014 -115.509607 179 16107ft 325kts
20-Mar-20 07:50 36.750585 -115.510230 177 16118ft 327kts
20-Mar-20 07:51 36.659842 -115.510582 180 15974ft 310kts
20-Mar-20 07:52 36.579579 -115.494317 133 16067ft 306kts
20-Mar-20 07:53 36.577831 -115.400494 37 16025ft 291kts
20-Mar-20 07:54 36.657613 -115.381979 0 16034ft 303kts
20-Mar-20 07:55 36.700181 -115.380437 359 16063ft 274kts
20-Mar-20 07:56 36.735173 -115.380742 358 16077ft 294kts
20-Mar-20 07:57 36.818777 -115.380570 359 15927ft 287kts
20-Mar-20 07:58 36.876150 -115.379966 359 15923ft 298kts
20-Mar-20 07:59 36.945449 -115.419870 298 16895ft 295kts
20-Mar-20 08:00 36.935787 -115.520273 221 16796ft 322kts
20-Mar-20 08:02 36.850246 -115.547046 184 16824ft 326kts
20-Mar-20 08:03 36.772854 -115.582120 269 16715ft 292kts
20-Mar-20 08:04 36.835704 -115.621800 0 16132ft 298kts
20-Mar-20 08:05 36.848535 -115.542464 143 16055ft 317kts
20-Mar-20 08:06 36.763730 -115.544652 225 16267ft 321kts
20-Mar-20 08:07 36.801255 -115.613970 350 16242ft 314kts
20-Mar-20 08:08 36.859719 -115.566778 84 16279ft 322kts
20-Mar-20 08:09 36.812893 -115.563417 250 15220ft 226kts
20-Mar-20 08:10 36.789829 -115.644930 242 15429ft 264kts
20-Mar-20 08:11 36.787200 -115.615375 351 6071ft 327kts
20-Mar-20 08:12 36.795886 -115.583077 173 7544ft 293kts
20-Mar-20 08:13 36.775201 -115.619682 353 3970ft 305kts
20-Mar-20 08:14 36.782966 -115.608859 265 6081ft 250kts
20-Mar-20 08:15 36.851656 -115.625489 355 5207ft 323kts
20-Mar-20 08:16 36.898785 -115.634934 133 5103ft 291kts
20-Mar-20 08:17 36.834769 -115.608699 182 6206ft 245kts
20-Mar-20 08:18 36.771145 -115.610766 180 8092ft 216kts
20-Mar-20 08:19 36.716351 -115.650145 247 8894ft 272kts
20-Mar-20 08:20 36.728553 -115.640232 141 7543ft 215kts
20-Mar-20 08:20 36.690128 -115.600628 131 8831ft 214kts
20-Mar-20 08:22 36.655388 -115.530892 83 9673ft 195kts
20-Mar-20 08:23 36.696315 -115.496720 342 9687ft 231kts
20-Mar-20 08:23 36.729885 -115.548461 270 9666ft 236kts
20-Mar-20 08:25 36.682229 -115.597279 158 9674ft 215kts
20-Mar-20 08:26 36.661101 -115.535862 61 9674ft 218kts
20-Mar-20 08:26 36.704691 -115.511806 342 9676ft 228kts
20-Mar-20 08:28 36.728581 -115.587851 237 9674ft 238kts
20-Mar-20 08:28 36.680508 -115.612582 162 9674ft 239kts
20-Mar-20 08:29 36.630808 -115.560999 125 9870ft 240kts
20-Mar-20 08:30 36.588893 -115.499341 132 9705ft 232kts
20-Mar-20 08:31 36.540085 -115.440947 156 9690ft 249kts
20-Mar-20 08:32 36.476731 -115.423221 164 9590ft 195kts
20-Mar-20 08:33 36.423994 -115.405579 158 9074ft 211kts
20-Mar-20 08:34 36.371755 -115.369826 143 8658ft 227kts
20-Mar-20 08:35 36.325482 -115.324769 135 7016ft 200kts
20-Mar-20 08:36 36.295885 -115.262617 106 6921ft 236kts
20-Mar-20 08:37 36.278347 -115.187920 101 5664ft 211kts
20-Mar-20 08:38 36.265458 -115.124203 105 4727ft 190kts
20-Mar-20 08:39 36.223153 -115.094220 165 3553ft 184kts
20-Mar-20 08:40 36.210536 -115.060059 39 2493ft 137kts
20-Mar-20 08:41 36.234654 -115.033650 39 1850ft 92kts
20-Mar-20 08:42 36.245035 -115.021267 122 1860ft 14kts
20-Mar-20 08:43 36.242029 -115.022073 220 1857ft 15kts
20-Mar-20 08:44 36.235383 -115.029278 220 1851ft 36kts
20-Mar-20 08:45 36.230706 -115.029667 89 1850ft 14kts
20-Mar-20 08:46 36.230022 -115.025684 124 1850ft 10kts
20-Mar-20 08:47 36.229634 -115.024485 85 1850ft 0kts
20-Mar-20 08:48 36.229634 -115.024485 85 1850ft 0kts

Navigation Log

Ident Type
Flight plan parsing failed, navigation log unavailable